Holly Springs, NC (27540)

7:39 AM EST on March 01, 2015 (GMT -0500)
springhill subdiv. | Change Station
CLOSE
Current Station
Personal Weather Station
Location: Holly Springs, NC
Elevation: 413 ft
Nearby Weather Stations
Active Advisory: Winter Weather Advisory Active Notice: Local Storm Report

Elev 413 ft 35.61 °N, 78.81 °W | Updated 4 seconds ago

Overcast
Overcast
30.7 °F
Feels Like 31 °F
N
0.0
Wind Variable Wind from WSW
Gusts 0.0 mph

Today
High -- | Low -- °F
--% Chance of Precip.
Yesterday
High -- | Low -- °F
Precip. -- in
6:45 AM 6:10 PM
Waxing Gibbous, 85% visible
Pressure 30.59 in
Visibility 10.0 miles
Clouds Scattered Clouds 600 ft
Overcast 1800 ft
Windchill 31 °F
Dew Point 28 °F
Humidity 90%
Rainfall 0.05 in
Snow Depth Not available.
UV 0.0 out of 12
Pollen 3.10 out of 12
Air Quality Not available.
Flu Activity Not available.
METAR KTTA 011235Z AUTO 00000KT 10SM UP SCT006 OVC018 00/00 A3059 RMK AO2 T10051005

More Conditions Fewer Conditions

Pressure 30.59 in
Visibility 10.0 miles
Clouds Scattered Clouds 600 ft
Overcast 1800 ft
Windchill 31 °F
Dew Point 28 °F
Humidity 90%
Rainfall 0.05 in
Snow Depth Not available.
UV 0.0 out of 12
Pollen 3.10 out of 12
Air Quality Not available.
Flu Activity Not available.
METAR KTTA 011235Z AUTO 00000KT 10SM UP SCT006 OVC018 00/00 A3059 RMK AO2 T10051005

More Conditions Fewer Conditions

10-Day Weather Forecast

Almanac

Astronomy

Mar. 01, 2015 Rise Set
Actual Time
Civil Twilight
Nautical Twilight
Astronomical Twilight
Moon
Length of Visible Light
Length of Day
Tomorrow will be .
, % of the Moon is Illuminated

Today's Extremes

State Highs State Lows

Community

WunderPhotos

Upload Photos

1,801,368 photos uploaded!

WunderBlogs® & News

Nearby

Air Quality

  Air Quality AQ Index Pollutant
Not available.

Snow Depth

Station Depth Elevation

Earthquake Activity

City Distance Mag. Time & Date
Minimum magnitude displayed is 2.5.

Coastal Water Temperatures

Place Temperature

Nearby Weather Stations

Winter Weather Advisory
Statement as of 4:15 AM EST on March 01, 2015

... Winter Weather Advisory remains in effect until noon EST
today...

* locations... include much of the Piedmont of NC and the northern
coastal plain.

* Hazard types... light freezing rain and freezing drizzle.

* Accumulations... ice accrual of less than a tenth of an inch.

* Timing... through this morning.

* Impacts... a thin coating of ice on roads and sidewalks will make
travel and walking treacherous this morning.

* Temperatures... in the lower 30s.

Precautionary/preparedness actions...

This Winter Weather Advisory means that periods of freezing rain
or freezing drizzle will cause travel difficulties. Be prepared
for slippery roads... and use extra caution while driving.